Time;durP1;ratioP1;P1;durP2;ratioP2;P2;SDS_P1;SDS_P2;PMS_P1;PMS_P2;Temp;Humidity;BMP_temperature;BMP_pressure;BME280_temperature;BME280_humidity;BME280_pressure;Samples;Min_cycle;Max_cycle;Signal;HPM_P1;HPM_P2
2022/08/08 00:03:50;;;;;;;;;;;17.40;99.90;;;;;;8394667;28;19939;-70
2022/08/08 00:08:03;;;;;;;;;;;17.30;99.90;;;;;;8406893;28;20047;-69
2022/08/08 00:12:09;;;;;;;;;;;17.20;99.90;;;;;;8407544;28;19924;-69
2022/08/08 00:16:18;;;;;;;;;;;17.20;99.90;;;;;;8403323;28;19943;-70
2022/08/08 00:20:25;;;;;;;;;;;17.20;99.90;;;;;;8411518;28;20363;-69
2022/08/08 00:24:32;;;;;;;;;;;17.20;99.90;;;;;;8406581;28;19940;-70
2022/08/08 00:28:45;;;;;;;;;;;17.10;99.90;;;;;;8389932;28;19998;-69
2022/08/08 00:32:54;;;;;;;;;;;17.00;99.90;;;;;;8407174;28;19928;-69
2022/08/08 00:36:59;;;;;;;;;;;16.90;99.90;;;;;;8411979;28;20377;-70
2022/08/08 00:41:23;;;;;;;;;;;16.90;99.90;;;;;;8406683;28;19929;-69
2022/08/08 00:45:44;;;;;;;;;;;16.90;99.90;;;;;;8401748;28;20070;-70
2022/08/08 00:49:46;;;;;;;;;;;16.80;99.90;;;;;;8416068;28;19924;-70
2022/08/08 00:53:54;;;;;;;;;;;16.80;99.90;;;;;;8418230;28;20307;-69
2022/08/08 00:58:07;;;;;;;;;;;16.70;99.90;;;;;;8414675;28;20380;-69
2022/08/08 01:02:30;;;;;;;;;;;16.70;99.90;;;;;;8404444;28;20631;-69
2022/08/08 01:07:10;;;;;;;;;;;16.60;99.90;;;;;;8428511;28;22761;-70
2022/08/08 01:11:30;;;;;;;;;;;16.50;99.90;;;;;;8432341;27;19966;-69
2022/08/08 01:15:37;;;;;;;;;;;16.50;99.90;;;;;;8397195;28;19924;-70
2022/08/08 01:20:04;;;;;;;;;;;16.40;99.90;;;;;;8421061;28;19932;-70
2022/08/08 01:24:08;;;;;;;;;;;16.30;99.90;;;;;;8388298;28;19987;-69
2022/08/08 01:28:35;;;;;;;;;;;16.30;99.90;;;;;;8417630;28;20406;-69
2022/08/08 01:33:06;;;;;;;;;;;16.20;99.90;;;;;;8403816;28;20309;-70
2022/08/08 01:37:35;;;;;;;;;;;16.20;99.90;;;;;;8384431;28;20382;-69
2022/08/08 01:42:09;;;;;;;;;;;16.20;99.90;;;;;;8414996;28;19928;-69
2022/08/08 01:46:29;;;;;;;;;;;16.10;99.90;;;;;;8406551;28;19935;-70
2022/08/08 01:50:39;;;;;;;;;;;16.00;99.90;;;;;;8411775;28;20383;-70
2022/08/08 01:54:51;;;;;;;;;;;16.00;99.90;;;;;;8400007;28;19993;-70
2022/08/08 01:59:15;;;;;;;;;;;16.00;99.90;;;;;;8399221;28;19947;-69
2022/08/08 02:03:36;;;;;;;;;;;15.90;99.90;;;;;;8401063;28;19928;-69
2022/08/08 02:08:04;;;;;;;;;;;15.90;99.90;;;;;;8408144;28;20610;-69
2022/08/08 02:12:39;;;;;;;;;;;15.80;99.90;;;;;;8385701;28;19959;-69
2022/08/08 02:17:02;;;;;;;;;;;15.80;99.90;;;;;;8377506;28;20378;-70
2022/08/08 02:25:35;;;;;;;;;;;15.60;99.90;;;;;;8386906;28;19924;-69
2022/08/08 02:30:06;;;;;;;;;;;15.60;99.90;;;;;;8395739;28;19928;-69
2022/08/08 02:34:07;;;;;;;;;;;15.50;99.90;;;;;;8397463;28;20277;-69
2022/08/08 02:38:10;;;;;;;;;;;15.40;99.90;;;;;;8405615;28;19932;-70
2022/08/08 02:42:19;;;;;;;;;;;15.40;99.90;;;;;;8424929;28;19925;-69
2022/08/08 02:46:36;;;;;;;;;;;15.40;99.90;;;;;;8424856;28;19928;-69
2022/08/08 02:51:08;;;;;;;;;;;15.40;99.90;;;;;;8398512;28;19928;-69
2022/08/08 02:55:15;;;;;;;;;;;15.30;99.90;;;;;;8413379;28;19977;-69
2022/08/08 02:59:39;;;;;;;;;;;15.30;99.90;;;;;;8401522;28;20391;-69
2022/08/08 03:04:07;;;;;;;;;;;15.20;99.90;;;;;;8426335;28;19924;-69
2022/08/08 03:08:44;;;;;;;;;;;15.20;99.90;;;;;;8400763;28;19930;-69
2022/08/08 03:12:52;;;;;;;;;;;15.20;99.90;;;;;;8411676;28;19924;-69
2022/08/08 03:17:21;;;;;;;;;;;15.10;99.90;;;;;;8383745;28;19924;-69
2022/08/08 03:21:34;;;;;;;;;;;15.10;99.90;;;;;;8415607;28;19924;-70
2022/08/08 03:25:56;;;;;;;;;;;15.10;99.90;;;;;;8418959;28;19939;-68
2022/08/08 03:30:00;;;;;;;;;;;15.00;99.90;;;;;;8397441;28;19928;-69
2022/08/08 03:34:02;;;;;;;;;;;14.90;99.90;;;;;;8410030;28;20003;-69
2022/08/08 03:38:05;;;;;;;;;;;14.90;99.90;;;;;;8409290;28;19960;-69
2022/08/08 03:42:26;;;;;;;;;;;14.90;99.90;;;;;;8409141;28;19959;-69
2022/08/08 03:46:41;;;;;;;;;;;14.80;99.90;;;;;;8404022;28;19963;-69
2022/08/08 03:50:46;;;;;;;;;;;14.80;99.90;;;;;;8394038;28;19924;-69
2022/08/08 03:54:49;;;;;;;;;;;14.70;99.90;;;;;;8409480;28;20376;-69
2022/08/08 03:59:03;;;;;;;;;;;14.70;99.90;;;;;;8400165;28;19928;-69
2022/08/08 04:03:05;;;;;;;;;;;14.70;99.90;;;;;;8418197;28;20325;-69
2022/08/08 04:07:12;;;;;;;;;;;14.70;99.90;;;;;;8419748;28;20320;-69
2022/08/08 04:11:17;;;;;;;;;;;14.70;99.90;;;;;;8400968;28;20380;-69
2022/08/08 04:15:21;;;;;;;;;;;14.60;99.90;;;;;;8392490;28;20427;-69
2022/08/08 04:19:23;;;;;;;;;;;14.60;99.90;;;;;;8411067;28;19939;-69
2022/08/08 04:23:25;;;;;;;;;;;14.50;99.90;;;;;;8413212;28;19997;-69
2022/08/08 04:27:47;;;;;;;;;;;14.50;99.90;;;;;;8409592;28;20007;-69
2022/08/08 04:32:13;;;;;;;;;;;14.50;99.90;;;;;;8413658;28;20443;-69
2022/08/08 04:36:14;;;;;;;;;;;14.50;99.90;;;;;;8420316;28;19924;-69
2022/08/08 04:40:16;;;;;;;;;;;14.60;99.90;;;;;;8414830;28;19924;-69
2022/08/08 04:44:18;;;;;;;;;;;14.60;99.90;;;;;;8421410;28;19947;-69
2022/08/08 04:48:20;;;;;;;;;;;14.60;99.90;;;;;;8411299;28;19932;-69
2022/08/08 04:52:22;;;;;;;;;;;14.50;99.90;;;;;;8420743;28;19986;-69
2022/08/08 04:56:25;;;;;;;;;;;14.60;99.90;;;;;;8436350;28;19924;-69
2022/08/08 05:00:27;;;;;;;;;;;14.60;99.90;;;;;;8444952;28;19932;-70
2022/08/08 05:04:29;;;;;;;;;;;14.60;99.90;;;;;;8422267;28;20100;-69
2022/08/08 05:08:30;;;;;;;;;;;14.70;99.90;;;;;;8438723;27;19924;-69
2022/08/08 05:12:32;;;;;;;;;;;14.80;99.90;;;;;;8422548;28;20264;-69
2022/08/08 05:16:37;;;;;;;;;;;14.80;99.90;;;;;;8409764;28;19936;-69
2022/08/08 05:20:53;;;;;;;;;;;14.90;99.90;;;;;;8412442;28;19932;-69
2022/08/08 05:24:56;;;;;;;;;;;15.00;99.90;;;;;;8421721;28;20031;-69
2022/08/08 05:28:58;;;;;;;;;;;15.10;99.90;;;;;;8411883;28;19932;-69
2022/08/08 05:33:06;;;;;;;;;;;15.20;99.90;;;;;;8402049;28;19924;-69
2022/08/08 05:37:08;;;;;;;;;;;15.30;99.90;;;;;;8403498;28;19929;-69
2022/08/08 05:41:23;;;;;;;;;;;15.30;99.90;;;;;;8420958;28;19974;-69
2022/08/08 05:45:25;;;;;;;;;;;15.40;99.90;;;;;;8422347;28;19936;-70
2022/08/08 05:49:32;;;;;;;;;;;15.50;99.90;;;;;;8414179;28;19928;-69
2022/08/08 05:53:33;;;;;;;;;;;15.60;99.90;;;;;;8389529;28;20019;-69
2022/08/08 05:57:56;;;;;;;;;;;15.70;99.90;;;;;;8386045;28;20031;-69
2022/08/08 06:03:08;;;;;;;;;;;15.80;99.90;;;;;;8391505;28;19928;-69
2022/08/08 06:06:30;;;;;;;;;;;15.90;99.90;;;;;;8391296;28;19939;-69
2022/08/08 06:10:33;;;;;;;;;;;16.00;99.90;;;;;;8388092;28;19932;-69
2022/08/08 06:14:35;;;;;;;;;;;16.20;99.90;;;;;;8390043;28;19925;-70
2022/08/08 06:18:38;;;;;;;;;;;16.30;99.90;;;;;;8392802;28;20387;-69
2022/08/08 06:22:40;;;;;;;;;;;16.40;99.90;;;;;;8390825;28;19939;-69
2022/08/08 06:26:49;;;;;;;;;;;16.60;99.90;;;;;;8389914;28;19925;-69
2022/08/08 06:30:54;;;;;;;;;;;16.70;99.90;;;;;;8383898;28;19973;-69
2022/08/08 06:34:58;;;;;;;;;;;16.80;99.90;;;;;;8364573;28;20886;-69
2022/08/08 06:39:21;;;;;;;;;;;17.00;99.90;;;;;;8383029;28;20034;-70
2022/08/08 06:43:24;;;;;;;;;;;17.20;99.90;;;;;;8375828;28;19940;-70
2022/08/08 06:47:32;;;;;;;;;;;17.30;99.90;;;;;;8378555;28;20322;-70
2022/08/08 06:51:53;;;;;;;;;;;17.50;99.90;;;;;;8386671;28;20891;-70
2022/08/08 06:55:58;;;;;;;;;;;17.60;99.90;;;;;;8382354;28;20395;-70
2022/08/08 07:00:07;;;;;;;;;;;17.70;99.90;;;;;;8383352;28;20633;-69
2022/08/08 07:04:17;;;;;;;;;;;17.80;99.90;;;;;;8376247;28;19928;-69
2022/08/08 07:08:44;;;;;;;;;;;17.90;99.90;;;;;;8383235;28;20350;-69
2022/08/08 07:12:53;;;;;;;;;;;18.00;99.90;;;;;;8388965;28;19943;-70
2022/08/08 07:17:00;;;;;;;;;;;18.10;99.90;;;;;;8381043;28;19931;-69
2022/08/08 07:21:05;;;;;;;;;;;18.20;99.90;;;;;;8386113;28;20372;-70
2022/08/08 07:25:20;;;;;;;;;;;18.30;99.90;;;;;;8387824;28;20015;-70
2022/08/08 07:29:22;;;;;;;;;;;18.50;99.90;;;;;;8377579;28;19928;-70
2022/08/08 07:33:44;;;;;;;;;;;18.60;99.90;;;;;;8383827;28;20008;-70
2022/08/08 07:37:55;;;;;;;;;;;18.70;99.90;;;;;;8380198;28;20339;-70
2022/08/08 07:42:12;;;;;;;;;;;18.90;99.90;;;;;;8387823;28;19924;-70
2022/08/08 07:46:14;;;;;;;;;;;19.00;99.90;;;;;;8382706;28;19929;-70
2022/08/08 07:50:24;;;;;;;;;;;19.10;99.90;;;;;;8366846;28;19924;-70
2022/08/08 07:54:32;;;;;;;;;;;19.20;99.90;;;;;;8381420;28;20522;-70
2022/08/08 07:58:41;;;;;;;;;;;19.30;99.90;;;;;;8389005;28;19947;-70
2022/08/08 08:02:53;;;;;;;;;;;19.40;99.90;;;;;;8384258;28;20364;-69
2022/08/08 08:06:57;;;;;;;;;;;19.50;99.90;;;;;;8370909;28;19996;-70
2022/08/08 08:10:58;;;;;;;;;;;19.60;99.90;;;;;;8381711;28;19935;-70
2022/08/08 08:15:00;;;;;;;;;;;19.70;99.90;;;;;;8375364;28;19928;-70
2022/08/08 08:19:08;;;;;;;;;;;19.70;99.90;;;;;;8378397;28;19963;-70
2022/08/08 08:23:09;;;;;;;;;;;19.80;99.90;;;;;;8366739;28;20055;-70
2022/08/08 08:27:11;;;;;;;;;;;19.90;99.90;;;;;;8378511;28;20371;-70
2022/08/08 08:31:13;;;;;;;;;;;19.90;99.90;;;;;;8372193;28;19932;-69
2022/08/08 08:35:15;;;;;;;;;;;20.00;99.90;;;;;;8373760;28;20038;-70
2022/08/08 08:39:16;;;;;;;;;;;20.10;99.90;;;;;;8395587;28;20179;-70
2022/08/08 08:43:24;;;;;;;;;;;20.10;99.90;;;;;;8382431;28;20816;-70
2022/08/08 08:47:28;;;;;;;;;;;20.20;99.90;;;;;;8371038;28;19932;-70
2022/08/08 08:51:45;;;;;;;;;;;20.30;99.90;;;;;;8381913;28;19959;-70
2022/08/08 08:55:52;;;;;;;;;;;20.30;99.90;;;;;;8378074;28;19932;-70
2022/08/08 08:59:55;;;;;;;;;;;20.40;99.90;;;;;;8384310;28;19974;-70
2022/08/08 09:04:04;;;;;;;;;;;20.50;99.90;;;;;;8381898;28;19932;-70
2022/08/08 09:08:07;;;;;;;;;;;20.50;99.90;;;;;;8376975;28;19955;-69
2022/08/08 09:12:14;;;;;;;;;;;20.60;99.90;;;;;;8394207;28;19925;-70
2022/08/08 09:16:16;;;;;;;;;;;20.70;99.90;;;;;;8388471;28;19945;-70
2022/08/08 09:20:18;;;;;;;;;;;20.70;99.90;;;;;;8400338;28;19924;-70
2022/08/08 09:24:40;;;;;;;;;;;20.70;99.90;;;;;;8374359;28;20011;-69
2022/08/08 09:28:43;;;;;;;;;;;20.70;99.90;;;;;;8389778;28;19980;-70
2022/08/08 09:32:48;;;;;;;;;;;20.70;99.90;;;;;;8386553;28;19924;-70
2022/08/08 09:37:10;;;;;;;;;;;20.60;99.90;;;;;;8386778;28;19936;-70
2022/08/08 09:41:39;;;;;;;;;;;20.60;99.90;;;;;;8389840;28;20259;-70
2022/08/08 09:45:59;;;;;;;;;;;20.60;99.90;;;;;;8390146;28;20023;-70
2022/08/08 09:50:08;;;;;;;;;;;20.70;99.90;;;;;;8390887;28;19978;-70
2022/08/08 09:54:16;;;;;;;;;;;20.80;99.90;;;;;;8386717;28;21069;-70
2022/08/08 09:58:39;;;;;;;;;;;20.80;99.90;;;;;;8384523;28;20371;-70
2022/08/08 10:02:43;;;;;;;;;;;20.80;99.90;;;;;;8389721;28;19957;-70
2022/08/08 10:06:46;;;;;;;;;;;20.70;99.90;;;;;;8379470;28;19932;-70
2022/08/08 10:10:57;;;;;;;;;;;20.60;99.90;;;;;;8395989;28;19932;-70
2022/08/08 10:14:59;;;;;;;;;;;20.60;99.90;;;;;;8391273;28;19929;-70
2022/08/08 10:19:01;;;;;;;;;;;20.50;99.90;;;;;;8372830;28;19932;-70
2022/08/08 10:23:03;;;;;;;;;;;20.50;99.90;;;;;;8400325;28;19936;-69
2022/08/08 10:27:05;;;;;;;;;;;20.40;99.90;;;;;;8365766;28;19929;-70
2022/08/08 10:35:53;;;;;;;;;;;20.40;99.90;;;;;;8381562;28;19932;-70
2022/08/08 10:40:15;;;;;;;;;;;20.40;99.90;;;;;;8375590;28;19925;-69
2022/08/08 10:44:18;;;;;;;;;;;20.50;99.90;;;;;;8374759;28;19924;-70
2022/08/08 10:48:29;;;;;;;;;;;20.60;99.90;;;;;;8386667;28;20291;-70
2022/08/08 10:52:31;;;;;;;;;;;20.60;99.90;;;;;;8377607;28;19936;-70
2022/08/08 10:56:33;;;;;;;;;;;20.70;99.90;;;;;;8364624;28;19935;-70
2022/08/08 11:00:43;;;;;;;;;;;20.90;99.90;;;;;;8386425;28;19966;-70
2022/08/08 11:04:49;;;;;;;;;;;21.10;99.90;;;;;;8400410;27;19933;-70
2022/08/08 11:09:04;;;;;;;;;;;21.20;99.90;;;;;;8403846;28;19955;-70
2022/08/08 11:13:20;;;;;;;;;;;21.30;99.90;;;;;;8372555;28;19931;-69
2022/08/08 11:17:32;;;;;;;;;;;21.40;99.90;;;;;;8388720;28;19932;-70
2022/08/08 11:21:54;;;;;;;;;;;21.60;99.90;;;;;;8387085;28;20050;-70
2022/08/08 11:25:57;;;;;;;;;;;21.70;99.90;;;;;;8389256;28;19932;-70
2022/08/08 11:30:00;;;;;;;;;;;21.80;99.90;;;;;;8387878;28;19924;-70
2022/08/08 11:34:23;;;;;;;;;;;22.00;99.90;;;;;;8380357;28;19924;-70
2022/08/08 11:38:39;;;;;;;;;;;22.20;99.90;;;;;;8380438;28;20058;-70
2022/08/08 11:42:56;;;;;;;;;;;22.40;99.90;;;;;;8384460;28;19924;-70
2022/08/08 11:46:58;;;;;;;;;;;22.40;99.90;;;;;;8387776;28;19936;-70
2022/08/08 11:51:00;;;;;;;;;;;22.30;99.90;;;;;;8382252;28;20002;-70
2022/08/08 11:55:25;;;;;;;;;;;22.20;99.90;;;;;;8385938;28;20016;-70
2022/08/08 11:59:31;;;;;;;;;;;22.10;99.90;;;;;;8381500;28;19931;-70
2022/08/08 12:03:53;;;;;;;;;;;22.10;99.90;;;;;;8387923;28;20378;-70
2022/08/08 12:08:00;;;;;;;;;;;22.10;99.90;;;;;;8387630;28;19935;-70
2022/08/08 12:12:01;;;;;;;;;;;22.10;99.90;;;;;;8385844;28;19931;-70
2022/08/08 12:16:06;;;;;;;;;;;22.10;99.90;;;;;;8385476;28;20360;-70
2022/08/08 12:20:08;;;;;;;;;;;22.10;99.90;;;;;;8389144;28;19932;-70
2022/08/08 12:24:14;;;;;;;;;;;22.10;99.90;;;;;;8381522;28;20478;-70
2022/08/08 12:28:17;;;;;;;;;;;22.10;99.90;;;;;;8373885;28;20004;-70
2022/08/08 12:32:18;;;;;;;;;;;22.30;99.90;;;;;;8407630;28;19939;-70
2022/08/08 12:36:39;;;;;;;;;;;22.30;99.90;;;;;;8389227;28;19939;-70
2022/08/08 12:40:40;;;;;;;;;;;22.40;99.90;;;;;;8391156;28;19924;-70
2022/08/08 12:45:09;;;;;;;;;;;22.40;99.90;;;;;;8388878;28;20191;-70
2022/08/08 12:49:25;;;;;;;;;;;22.40;99.90;;;;;;8394015;28;19924;-70
2022/08/08 12:53:55;;;;;;;;;;;22.40;99.90;;;;;;8391034;28;19970;-70
2022/08/08 12:58:07;;;;;;;;;;;22.50;99.90;;;;;;8395587;28;19972;-71
2022/08/08 13:02:19;;;;;;;;;;;22.50;99.90;;;;;;8393346;28;19971;-70
2022/08/08 13:06:21;;;;;;;;;;;22.60;99.90;;;;;;8393583;28;19933;-70
2022/08/08 13:10:29;;;;;;;;;;;22.50;99.90;;;;;;8395068;28;19931;-70
2022/08/08 13:14:41;;;;;;;;;;;22.50;99.90;;;;;;8394243;28;19932;-71
2022/08/08 13:18:57;;;;;;;;;;;22.50;99.90;;;;;;8387973;28;19985;-70
2022/08/08 13:23:14;;;;;;;;;;;22.50;99.90;;;;;;8386293;28;19971;-70
2022/08/08 13:27:31;;;;;;;;;;;22.50;99.90;;;;;;8393368;28;20015;-70
2022/08/08 13:31:44;;;;;;;;;;;22.60;99.90;;;;;;8405357;28;19939;-70
2022/08/08 13:35:46;;;;;;;;;;;22.80;99.90;;;;;;8387630;28;19955;-70
2022/08/08 13:39:52;;;;;;;;;;;23.00;99.90;;;;;;8393938;28;20438;-70
2022/08/08 13:43:53;;;;;;;;;;;23.00;99.90;;;;;;8390472;28;20023;-70
2022/08/08 13:47:59;;;;;;;;;;;22.90;99.90;;;;;;8409476;28;19932;-70
2022/08/08 13:52:01;;;;;;;;;;;22.90;99.90;;;;;;8374850;28;19947;-70
2022/08/08 13:56:07;;;;;;;;;;;22.90;99.90;;;;;;8384917;28;19935;-70
2022/08/08 14:00:20;;;;;;;;;;;22.80;99.90;;;;;;8389642;28;24510;-70
2022/08/08 14:04:23;;;;;;;;;;;22.80;99.90;;;;;;8383893;28;19924;-70
2022/08/08 14:08:25;;;;;;;;;;;22.80;99.90;;;;;;8390824;28;19925;-70
2022/08/08 14:12:31;;;;;;;;;;;22.80;99.90;;;;;;8389699;28;19925;-70
2022/08/08 14:16:33;;;;;;;;;;;22.80;99.90;;;;;;8386338;28;20051;-70
2022/08/08 14:20:36;;;;;;;;;;;22.90;99.90;;;;;;8391576;28;20261;-70
2022/08/08 14:25:02;;;;;;;;;;;22.90;99.90;;;;;;8389877;28;19929;-70
2022/08/08 14:29:18;;;;;;;;;;;23.00;99.90;;;;;;8390840;28;19986;-70
2022/08/08 14:33:28;;;;;;;;;;;23.00;99.90;;;;;;8385353;28;19928;-70
2022/08/08 14:37:38;;;;;;;;;;;23.20;99.90;;;;;;8387452;28;20292;-70
2022/08/08 14:41:44;;;;;;;;;;;23.30;99.90;;;;;;8388715;28;20346;-70
2022/08/08 14:46:04;;;;;;;;;;;23.50;99.90;;;;;;8383976;28;19936;-70
2022/08/08 14:50:09;;;;;;;;;;;23.50;99.90;;;;;;8389525;28;19932;-70
2022/08/08 14:54:23;;;;;;;;;;;23.50;99.90;;;;;;8387250;28;19928;-70
2022/08/08 14:58:29;;;;;;;;;;;23.50;99.90;;;;;;8376770;28;20016;-70
2022/08/08 15:02:31;;;;;;;;;;;23.50;99.90;;;;;;8387971;28;19924;-70
2022/08/08 15:06:33;;;;;;;;;;;23.40;99.90;;;;;;8386023;28;19944;-70
2022/08/08 15:10:35;;;;;;;;;;;23.50;99.90;;;;;;8384425;28;19925;-70
2022/08/08 15:14:36;;;;;;;;;;;23.50;99.90;;;;;;8380909;28;20432;-70
2022/08/08 15:18:38;;;;;;;;;;;23.50;99.90;;;;;;8400449;27;20380;-70
2022/08/08 15:22:41;;;;;;;;;;;23.40;99.90;;;;;;8381060;28;19936;-70
2022/08/08 15:26:45;;;;;;;;;;;23.40;99.90;;;;;;8389994;28;19931;-70
2022/08/08 15:30:53;;;;;;;;;;;23.30;99.90;;;;;;8383003;28;19932;-70
2022/08/08 15:34:55;;;;;;;;;;;23.30;99.90;;;;;;8384506;28;20037;-70
2022/08/08 15:38:57;;;;;;;;;;;23.30;99.90;;;;;;8385213;28;19928;-70
2022/08/08 15:42:58;;;;;;;;;;;23.30;99.90;;;;;;8385059;28;19932;-70
2022/08/08 15:47:00;;;;;;;;;;;23.30;99.90;;;;;;8383330;28;19944;-70
2022/08/08 15:51:03;;;;;;;;;;;23.50;99.90;;;;;;8386361;28;19924;-70
2022/08/08 15:55:08;;;;;;;;;;;23.80;99.90;;;;;;8383916;28;19947;-70
2022/08/08 15:59:09;;;;;;;;;;;24.20;99.90;;;;;;8384143;28;19986;-70
2022/08/08 16:03:11;;;;;;;;;;;24.70;99.90;;;;;;8388793;28;19924;-70
2022/08/08 16:07:14;;;;;;;;;;;24.90;99.90;;;;;;8396266;28;19928;-70
2022/08/08 16:11:16;;;;;;;;;;;25.20;99.90;;;;;;8398748;28;19947;-70
2022/08/08 16:15:38;;;;;;;;;;;25.70;99.90;;;;;;8394303;28;19974;-71
2022/08/08 16:19:58;;;;;;;;;;;26.00;99.90;;;;;;8394373;28;19979;-70
2022/08/08 16:24:03;;;;;;;;;;;26.00;99.90;;;;;;8395930;28;19928;-71
2022/08/08 16:28:04;;;;;;;;;;;26.20;99.90;;;;;;8393470;28;19924;-71
2022/08/08 16:32:06;;;;;;;;;;;26.60;99.90;;;;;;8386966;28;19925;-71
2022/08/08 16:36:11;;;;;;;;;;;26.90;99.90;;;;;;8396332;28;19950;-71
2022/08/08 16:40:20;;;;;;;;;;;27.20;99.90;;;;;;8395227;28;20699;-70
2022/08/08 16:44:21;;;;;;;;;;;27.40;99.90;;;;;;8397897;28;20036;-71
2022/08/08 16:48:28;;;;;;;;;;;27.60;99.90;;;;;;8399226;28;19932;-70
2022/08/08 16:52:32;;;;;;;;;;;27.70;99.90;;;;;;8382601;28;20183;-71
2022/08/08 16:56:54;;;;;;;;;;;27.70;99.90;;;;;;8397623;28;24313;-71
2022/08/08 17:01:04;;;;;;;;;;;27.70;99.90;;;;;;8393078;28;19928;-71
2022/08/08 17:05:07;;;;;;;;;;;27.70;99.90;;;;;;8400293;28;19952;-71
2022/08/08 17:09:09;;;;;;;;;;;27.60;99.90;;;;;;8390666;28;19924;-71
2022/08/08 17:13:16;;;;;;;;;;;27.50;99.90;;;;;;8398844;28;19928;-71
2022/08/08 17:17:17;;;;;;;;;;;27.30;99.90;;;;;;8391838;28;19924;-71
2022/08/08 17:21:23;;;;;;;;;;;27.20;99.90;;;;;;8381602;28;19928;-71
2022/08/08 17:25:26;;;;;;;;;;;27.00;99.90;;;;;;8388241;28;19928;-71
2022/08/08 17:29:42;;;;;;;;;;;26.70;99.90;;;;;;8388778;28;19920;-71
2022/08/08 17:33:57;;;;;;;;;;;26.40;99.90;;;;;;8392543;28;19924;-71
2022/08/08 17:38:19;;;;;;;;;;;26.20;99.90;;;;;;8388243;28;20695;-71
2022/08/08 17:42:20;;;;;;;;;;;26.00;99.90;;;;;;8389130;28;20003;-71
2022/08/08 17:46:33;;;;;;;;;;;25.70;99.90;;;;;;8388253;28;19920;-70
2022/08/08 17:50:34;;;;;;;;;;;25.50;99.90;;;;;;8385911;28;19943;-71
2022/08/08 17:54:36;;;;;;;;;;;25.20;99.90;;;;;;8385798;28;19920;-71
2022/08/08 17:58:38;;;;;;;;;;;25.10;99.90;;;;;;8387122;28;19924;-71
2022/08/08 18:02:39;;;;;;;;;;;24.90;99.90;;;;;;8373753;28;19920;-71
2022/08/08 18:06:41;;;;;;;;;;;24.80;99.90;;;;;;8390324;28;20031;-70
2022/08/08 18:10:43;;;;;;;;;;;24.70;99.90;;;;;;8391961;28;19928;-71
2022/08/08 18:14:47;;;;;;;;;;;24.50;99.90;;;;;;8386175;28;19936;-71
2022/08/08 18:18:52;;;;;;;;;;;24.40;99.90;;;;;;8380123;28;20391;-71
2022/08/08 18:22:57;;;;;;;;;;;24.20;99.90;;;;;;8390428;28;19966;-71
2022/08/08 18:26:59;;;;;;;;;;;24.10;99.90;;;;;;8389619;28;19927;-71
2022/08/08 18:31:01;;;;;;;;;;;24.00;99.90;;;;;;8380175;28;19924;-70
2022/08/08 18:35:03;;;;;;;;;;;24.00;99.90;;;;;;8389360;28;19920;-70
2022/08/08 18:39:10;;;;;;;;;;;23.90;99.90;;;;;;8387301;28;20475;-70
2022/08/08 18:43:28;;;;;;;;;;;23.80;99.90;;;;;;8389173;28;21025;-70
2022/08/08 18:47:43;;;;;;;;;;;23.70;99.90;;;;;;8400399;27;19950;-70
2022/08/08 18:51:44;;;;;;;;;;;23.60;99.90;;;;;;8387972;28;19924;-71
2022/08/08 18:55:54;;;;;;;;;;;23.50;99.90;;;;;;8391725;28;19934;-71
2022/08/08 18:59:56;;;;;;;;;;;23.40;99.90;;;;;;8390907;28;20332;-70
2022/08/08 19:03:57;;;;;;;;;;;23.40;99.90;;;;;;8391503;28;19921;-70
2022/08/08 19:08:16;;;;;;;;;;;23.30;99.90;;;;;;8388065;28;19935;-70
2022/08/08 19:12:28;;;;;;;;;;;23.20;99.90;;;;;;8382390;28;19935;-71
2022/08/08 19:16:29;;;;;;;;;;;23.10;99.90;;;;;;8390933;28;19928;-70
2022/08/08 19:20:33;;;;;;;;;;;23.00;99.90;;;;;;8386345;28;19926;-70
2022/08/08 19:24:35;;;;;;;;;;;22.90;99.90;;;;;;8388116;28;20253;-70
2022/08/08 19:28:49;;;;;;;;;;;22.80;99.90;;;;;;8389813;28;20287;-70
2022/08/08 19:32:51;;;;;;;;;;;22.70;99.90;;;;;;8386208;28;19929;-70
2022/08/08 19:36:53;;;;;;;;;;;22.60;99.90;;;;;;8386160;28;20390;-70
2022/08/08 19:40:56;;;;;;;;;;;22.60;99.90;;;;;;8387061;28;20310;-71
2022/08/08 19:44:57;;;;;;;;;;;22.50;99.90;;;;;;8384638;28;19995;-71
2022/08/08 19:49:05;;;;;;;;;;;22.50;99.90;;;;;;8385017;28;19964;-70
2022/08/08 19:53:07;;;;;;;;;;;22.40;99.90;;;;;;8378288;28;20338;-70
2022/08/08 19:57:29;;;;;;;;;;;22.30;99.90;;;;;;8377077;28;19928;-70
2022/08/08 20:01:31;;;;;;;;;;;22.30;99.90;;;;;;8382068;28;20066;-70
2022/08/08 20:05:53;;;;;;;;;;;22.20;99.90;;;;;;8381209;28;19952;-71
2022/08/08 20:10:16;;;;;;;;;;;22.20;99.90;;;;;;8373031;28;19939;-71
2022/08/08 20:14:18;;;;;;;;;;;22.10;99.90;;;;;;8374301;28;20325;-71
2022/08/08 20:18:35;;;;;;;;;;;22.10;99.90;;;;;;8383508;28;19939;-71
2022/08/08 20:22:39;;;;;;;;;;;22.10;99.90;;;;;;8399115;28;20875;-70
2022/08/08 20:26:41;;;;;;;;;;;22.00;99.90;;;;;;8372197;28;19928;-70
2022/08/08 20:30:47;;;;;;;;;;;22.00;99.90;;;;;;8382394;28;19928;-71
2022/08/08 20:34:57;;;;;;;;;;;21.90;99.90;;;;;;8381082;28;20298;-71
2022/08/08 20:39:02;;;;;;;;;;;21.80;99.90;;;;;;8381479;28;19960;-71
2022/08/08 20:43:03;;;;;;;;;;;21.80;99.90;;;;;;8379847;28;20006;-70
2022/08/08 20:47:18;;;;;;;;;;;21.70;99.90;;;;;;8395013;28;20011;-70
2022/08/08 20:51:26;;;;;;;;;;;21.60;99.90;;;;;;8387612;28;20330;-70
2022/08/08 20:55:28;;;;;;;;;;;21.60;99.90;;;;;;8386972;28;19935;-70
2022/08/08 20:59:29;;;;;;;;;;;21.50;99.90;;;;;;8387160;28;19931;-70
2022/08/08 21:03:31;;;;;;;;;;;21.50;99.90;;;;;;8414400;28;19931;-70
2022/08/08 21:07:33;;;;;;;;;;;21.40;99.90;;;;;;8429500;28;19932;-70
2022/08/08 21:11:54;;;;;;;;;;;21.40;99.90;;;;;;8418503;28;19959;-70
2022/08/08 21:16:03;;;;;;;;;;;21.40;99.90;;;;;;8417187;28;19939;-70
2022/08/08 21:20:18;;;;;;;;;;;21.30;99.90;;;;;;8419852;28;19920;-71
2022/08/08 21:24:20;;;;;;;;;;;21.30;99.90;;;;;;8440893;28;19935;-70
2022/08/08 21:28:30;;;;;;;;;;;21.20;99.90;;;;;;8399692;28;20326;-70
2022/08/08 21:32:34;;;;;;;;;;;21.10;99.90;;;;;;8430694;28;19920;-71
2022/08/08 21:36:51;;;;;;;;;;;21.10;99.90;;;;;;8412800;28;19920;-71
2022/08/08 21:40:52;;;;;;;;;;;21.00;99.90;;;;;;8421799;28;19924;-70
2022/08/08 21:44:57;;;;;;;;;;;21.00;99.90;;;;;;8435458;28;19919;-70
2022/08/08 21:49:02;;;;;;;;;;;20.90;99.90;;;;;;8413373;28;20018;-70
2022/08/08 21:53:03;;;;;;;;;;;20.80;99.90;;;;;;8417135;28;19928;-71
2022/08/08 21:57:25;;;;;;;;;;;20.80;99.90;;;;;;8429328;28;20375;-70
2022/08/08 22:01:29;;;;;;;;;;;20.70;99.90;;;;;;8412895;28;19920;-70
2022/08/08 22:05:40;;;;;;;;;;;20.70;99.90;;;;;;8431658;28;19920;-70
2022/08/08 22:09:42;;;;;;;;;;;20.70;99.90;;;;;;8421828;28;20347;-70
2022/08/08 22:13:44;;;;;;;;;;;20.60;99.90;;;;;;8429876;28;19920;-70
2022/08/08 22:17:52;;;;;;;;;;;20.60;99.90;;;;;;8407662;28;19928;-70
2022/08/08 22:21:53;;;;;;;;;;;20.50;99.90;;;;;;8422955;28;19920;-71
2022/08/08 22:25:55;;;;;;;;;;;20.50;99.90;;;;;;8428661;28;19920;-70
2022/08/08 22:30:16;;;;;;;;;;;20.40;99.90;;;;;;8423682;28;20011;-70
2022/08/08 22:34:34;;;;;;;;;;;20.40;99.90;;;;;;8424357;28;19920;-70
2022/08/08 22:38:40;;;;;;;;;;;20.40;99.90;;;;;;8415079;28;19928;-70
2022/08/08 22:42:48;;;;;;;;;;;20.40;99.90;;;;;;8399830;28;20299;-70
2022/08/08 22:46:50;;;;;;;;;;;20.40;99.90;;;;;;8431406;28;19924;-70
2022/08/08 22:50:52;;;;;;;;;;;20.30;99.90;;;;;;8411746;28;19923;-71
2022/08/08 22:54:53;;;;;;;;;;;20.30;99.90;;;;;;8433522;28;19924;-70
2022/08/08 22:58:59;;;;;;;;;;;20.20;99.90;;;;;;8393514;28;20016;-70
2022/08/08 23:03:02;;;;;;;;;;;20.10;99.90;;;;;;8413066;28;20236;-70
2022/08/08 23:07:04;;;;;;;;;;;20.00;99.90;;;;;;8439645;27;19924;-70
2022/08/08 23:11:06;;;;;;;;;;;20.00;99.90;;;;;;8434755;28;20283;-70
2022/08/08 23:15:16;;;;;;;;;;;19.90;99.90;;;;;;8423544;28;19947;-70
2022/08/08 23:19:38;;;;;;;;;;;19.90;99.90;;;;;;8418139;28;19959;-70
2022/08/08 23:23:40;;;;;;;;;;;19.80;99.90;;;;;;8434086;28;20390;-70
2022/08/08 23:27:49;;;;;;;;;;;19.70;99.90;;;;;;8410785;28;20536;-71
2022/08/08 23:31:55;;;;;;;;;;;19.70;99.90;;;;;;8432120;28;19932;-70
2022/08/08 23:35:56;;;;;;;;;;;19.60;99.90;;;;;;8402353;28;19924;-70
2022/08/08 23:40:08;;;;;;;;;;;19.50;99.90;;;;;;8417483;28;19932;-70
2022/08/08 23:44:09;;;;;;;;;;;19.50;99.90;;;;;;8429105;28;20002;-70
2022/08/08 23:48:11;;;;;;;;;;;19.40;99.90;;;;;;8395913;28;20360;-70
2022/08/08 23:52:33;;;;;;;;;;;19.40;99.90;;;;;;8433475;28;19963;-70
2022/08/08 23:56:35;;;;;;;;;;;19.30;99.90;;;;;;8417087;28;20004;-70
